Time;durP1;ratioP1;P1;durP2;ratioP2;P2;SDS_P1;SDS_P2;PMS_P1;PMS_P2;Temp;Humidity;BMP_temperature;BMP_pressure;BME280_temperature;BME280_humidity;BME280_pressure;Samples;Min_cycle;Max_cycle;Signal;HPM_P1;HPM_P2
2022/09/03 00:00:18;;;;;;;1.80;1.55;;;;;;;15.60;79.46;99632.16;5032848;28;20025;-71
2022/09/03 00:02:57;;;;;;;3.88;1.75;;;;;;;15.66;79.30;99626.16;5025905;28;20036;-70
2022/09/03 00:05:47;;;;;;;2.53;1.73;;;;;;;15.76;79.07;99632.53;5033293;28;20608;-70
2022/09/03 00:08:22;;;;;;;4.00;1.70;;;;;;;15.81;78.55;99624.94;5004269;28;20476;-70
2022/09/03 00:11:00;;;;;;;2.42;1.70;;;;;;;15.80;78.39;99626.06;5035144;28;20049;-69
2022/09/03 00:13:35;;;;;;;2.90;2.50;;;;;;;15.81;78.39;99619.44;5033982;28;20025;-69
2022/09/03 00:16:08;;;;;;;2.58;2.05;;;;;;;15.74;78.35;99609.97;5018211;28;20044;-69
2022/09/03 00:18:37;;;;;;;2.55;1.95;;;;;;;15.80;78.21;99619.72;5026356;28;20525;-69
2022/09/03 00:21:14;;;;;;;3.22;2.28;;;;;;;15.77;77.94;99620.34;5028810;28;20071;-69
2022/09/03 00:23:41;;;;;;;5.55;2.00;;;;;;;15.74;78.00;99608.03;5026068;28;20033;-69
2022/09/03 00:26:21;;;;;;;3.00;1.88;;;;;;;15.74;78.00;99605.28;5018107;28;20025;-69
2022/09/03 00:28:54;;;;;;;2.88;1.80;;;;;;;15.68;78.04;99598.28;5016328;28;20040;-70
2022/09/03 00:31:37;;;;;;;2.25;1.80;;;;;;;15.65;77.84;99601.66;5035878;28;20121;-69
2022/09/03 00:34:14;;;;;;;1.95;1.60;;;;;;;15.63;77.80;99598.44;5027428;28;20030;-69
2022/09/03 00:36:44;;;;;;;2.28;1.50;;;;;;;15.59;78.01;99598.25;5027743;28;20029;-68
2022/09/03 00:39:19;;;;;;;3.72;1.35;;;;;;;15.57;77.84;99595.00;5033124;28;20025;-69
2022/09/03 00:41:55;;;;;;;2.05;1.70;;;;;;;15.51;78.12;99585.28;5033068;28;20033;-70
2022/09/03 00:44:33;;;;;;;2.55;1.63;;;;;;;15.51;78.32;99601.81;5027361;28;20361;-69
2022/09/03 00:47:09;;;;;;;2.47;1.80;;;;;;;15.46;78.04;99591.75;5008362;28;20028;-69
2022/09/03 00:50:12;;;;;;;2.38;1.88;;;;;;;15.45;78.05;99592.88;5017615;28;20136;-69
2022/09/03 00:53:07;;;;;;;2.80;2.20;;;;;;;15.41;78.18;99588.31;5012436;28;20025;-68
2022/09/03 00:55:57;;;;;;;2.35;1.95;;;;;;;15.40;78.58;99590.25;5000649;28;20026;-69
2022/09/03 00:58:32;;;;;;;2.85;2.38;;;;;;;15.40;78.54;99583.94;5016631;28;20025;-70
2022/09/03 01:00:59;;;;;;;2.22;1.88;;;;;;;15.36;78.57;99578.22;5037490;28;20022;-69
2022/09/03 01:04:04;;;;;;;1.50;1.40;;;;;;;15.39;78.50;99582.31;5018093;28;20060;-71
2022/09/03 01:06:57;;;;;;;1.65;1.55;;;;;;;15.37;78.26;99579.88;5033850;28;20025;-69
2022/09/03 01:09:39;;;;;;;1.55;1.40;;;;;;;15.35;78.57;99582.13;5034291;28;20021;-67
2022/09/03 01:12:31;;;;;;;1.55;1.40;;;;;;;15.31;78.39;99581.16;5033226;28;20041;-69
2022/09/03 01:15:07;;;;;;;2.30;2.08;;;;;;;15.29;78.26;99589.72;5032955;28;20079;-70
2022/09/03 01:18:02;;;;;;;6.00;3.45;;;;;;;15.23;78.92;99590.19;5032231;28;20025;-70
2022/09/03 01:20:31;;;;;;;4.47;3.17;;;;;;;15.19;79.15;99590.00;5032074;28;20025;-69
2022/09/03 01:23:38;;;;;;;4.57;3.70;;;;;;;15.15;79.56;99592.56;5036444;28;20025;-70
2022/09/03 01:26:22;;;;;;;6.07;4.32;;;;;;;15.13;79.60;99585.78;4990779;28;20088;-68
2022/09/03 01:29:14;;;;;;;6.10;3.93;;;;;;;15.08;79.94;99586.72;5032530;28;20038;-69
2022/09/03 01:31:56;;;;;;;7.53;4.53;;;;;;;15.06;80.39;99575.22;5030098;28;20087;-68
2022/09/03 01:34:52;;;;;;;7.47;5.00;;;;;;;14.99;80.62;99578.41;5033525;28;20029;-68
2022/09/03 01:37:36;;;;;;;6.38;5.05;;;;;;;14.96;80.58;99579.03;5008958;28;20051;-69
2022/09/03 01:40:04;;;;;;;6.43;4.35;;;;;;;14.95;81.11;99579.34;5037952;28;20108;-69
2022/09/03 01:42:48;;;;;;;5.70;4.40;;;;;;;14.94;81.46;99575.81;5032923;28;20494;-69
2022/09/03 01:45:35;;;;;;;4.60;3.63;;;;;;;14.95;81.13;99571.94;5029244;28;20033;-69
2022/09/03 01:48:09;;;;;;;6.80;5.03;;;;;;;14.93;81.50;99570.63;5030675;28;20025;-69
2022/09/03 01:50:58;;;;;;;5.72;4.93;;;;;;;14.89;81.70;99575.13;5032708;28;20030;-68
2022/09/03 01:53:44;;;;;;;10.52;6.68;;;;;;;14.82;82.48;99576.38;5012426;28;20104;-69
2022/09/03 01:56:16;;;;;;;13.15;7.13;;;;;;;14.76;82.47;99585.91;5027388;28;20471;-68
2022/09/03 01:59:01;;;;;;;7.10;5.03;;;;;;;14.66;82.68;99583.41;5022580;28;20121;-69
2022/09/03 02:01:40;;;;;;;5.30;4.80;;;;;;;14.56;82.64;99587.19;5030681;28;20051;-72
2022/09/03 02:04:19;;;;;;;5.47;4.53;;;;;;;14.48;83.00;99594.28;5028538;28;20047;-70
2022/09/03 02:06:47;;;;;;;5.90;3.50;;;;;;;14.42;82.91;99578.19;5031637;28;20040;-69
2022/09/03 02:09:14;;;;;;;3.17;2.80;;;;;;;14.40;82.80;99578.50;5033498;28;20016;-68
2022/09/03 02:11:41;;;;;;;3.05;2.75;;;;;;;14.39;82.82;99578.81;5028471;28;20057;-68
2022/09/03 02:14:09;;;;;;;4.35;3.22;;;;;;;14.40;82.77;99578.50;5029003;28;20024;-68
2022/09/03 02:16:35;;;;;;;3.58;2.83;;;;;;;14.40;82.53;99586.75;5014789;28;20017;-69
2022/09/03 02:19:06;;;;;;;3.33;2.78;;;;;;;14.38;82.77;99583.50;5018116;28;20102;-69
2022/09/03 02:21:35;;;;;;;4.18;3.17;;;;;;;14.36;82.73;99584.94;5031383;28;20718;-69
2022/09/03 02:24:03;;;;;;;6.38;5.13;;;;;;;14.36;82.87;99584.94;5031778;28;20055;-69
2022/09/03 02:26:29;;;;;;;5.00;4.32;;;;;;;14.34;82.90;99579.75;5014968;28;20478;-69
2022/09/03 02:28:56;;;;;;;7.03;4.47;;;;;;;14.29;82.98;99568.88;5013164;28;20116;-69
2022/09/03 02:31:22;;;;;;;4.63;4.05;;;;;;;14.28;82.93;99578.25;5018289;28;20472;-70
2022/09/03 02:33:49;;;;;;;3.72;3.05;;;;;;;14.26;82.94;99577.75;5017706;28;20504;-69
2022/09/03 02:36:19;;;;;;;3.17;2.88;;;;;;;14.27;82.87;99587.63;5010332;28;20028;-71
2022/09/03 02:38:46;;;;;;;4.32;3.60;;;;;;;14.29;82.58;99583.44;5034460;28;20052;-71
2022/09/03 02:41:12;;;;;;;3.70;3.15;;;;;;;14.28;82.85;99578.25;5019761;28;20820;-69
2022/09/03 02:44:02;;;;;;;5.50;3.70;;;;;;;14.30;82.67;99576.81;5027127;28;20025;-70
2022/09/03 02:46:43;;;;;;;6.68;5.78;;;;;;;14.34;82.89;99581.69;5026770;28;20037;-69
2022/09/03 02:49:09;;;;;;;9.85;7.22;;;;;;;14.26;82.84;99569.50;5033503;28;20036;-68
2022/09/03 02:51:37;;;;;;;8.50;6.63;;;;;;;14.22;83.33;99580.31;5032983;28;20021;-69
2022/09/03 02:54:03;;;;;;;7.03;4.70;;;;;;;14.18;83.55;99583.97;5031198;28;20017;-69
2022/09/03 02:56:29;;;;;;;7.57;5.75;;;;;;;14.17;83.54;99579.63;5000884;28;20091;-68
2022/09/03 02:58:55;;;;;;;10.07;7.68;;;;;;;14.18;84.01;99579.31;5014426;28;20033;-69
2022/09/03 03:01:20;;;;;;;6.80;6.10;;;;;;;14.13;84.05;99580.25;5013778;28;20484;-69
2022/09/03 03:03:46;;;;;;;9.43;7.07;;;;;;;14.16;84.33;99575.25;5018332;28;20025;-69
2022/09/03 03:06:13;;;;;;;9.18;6.63;;;;;;;14.12;84.67;99572.31;5017880;28;20025;-68
2022/09/03 03:08:39;;;;;;;11.30;8.10;;;;;;;14.13;85.23;99571.16;5013319;28;20546;-69
2022/09/03 03:11:05;;;;;;;9.60;7.18;;;;;;;14.18;85.49;99581.22;5027186;28;20060;-69
2022/09/03 03:13:31;;;;;;;12.50;9.43;;;;;;;14.29;85.78;99585.38;5016374;28;20021;-68
2022/09/03 03:15:58;;;;;;;13.82;9.63;;;;;;;14.46;85.99;99577.25;5035145;28;20021;-69
2022/09/03 03:18:24;;;;;;;13.07;8.68;;;;;;;14.59;85.53;99577.50;5031980;28;20025;-69
2022/09/03 03:20:50;;;;;;;14.45;9.77;;;;;;;14.70;85.12;99578.88;5035697;28;20037;-69
2022/09/03 03:23:16;;;;;;;15.60;10.02;;;;;;;14.78;85.34;99569.88;5034324;28;20033;-69
2022/09/03 03:25:41;;;;;;;16.25;10.65;;;;;;;14.86;85.39;99571.06;5025384;28;20650;-68
2022/09/03 03:28:07;;;;;;;12.10;8.43;;;;;;;14.93;85.46;99576.91;5030649;28;20091;-68
2022/09/03 03:30:35;;;;;;;16.73;9.52;;;;;;;15.00;85.49;99570.97;5028616;28;20022;-68
2022/09/03 03:33:01;;;;;;;20.10;11.75;;;;;;;15.04;85.70;99573.91;5029037;28;20029;-69
2022/09/03 03:35:26;;;;;;;21.77;11.55;;;;;;;15.05;86.11;99573.56;5032952;28;20030;-70
2022/09/03 03:37:52;;;;;;;20.85;11.23;;;;;;;15.08;86.44;99575.69;5013508;28;20065;-69
2022/09/03 03:40:19;;;;;;;20.25;11.13;;;;;;;15.09;86.29;99574.56;5034506;28;20048;-68
2022/09/03 03:42:44;;;;;;;19.38;11.45;;;;;;;15.10;86.50;99576.22;5018242;28;20103;-69
2022/09/03 03:45:11;;;;;;;18.35;10.65;;;;;;;15.11;86.69;99582.50;5034564;28;20025;-70
2022/09/03 03:47:36;;;;;;;20.77;12.00;;;;;;;15.10;86.73;99576.22;5037131;28;20112;-70
2022/09/03 03:50:02;;;;;;;14.82;8.02;;;;;;;15.11;86.99;99577.84;5018614;28;20449;-69
2022/09/03 03:52:28;;;;;;;13.15;7.35;;;;;;;15.10;86.82;99570.69;5033823;28;20033;-68
2022/09/03 03:54:53;;;;;;;14.27;8.23;;;;;;;15.13;86.96;99572.00;5026695;28;20041;-68
2022/09/03 03:57:20;;;;;;;21.92;11.95;;;;;;;15.16;87.11;99576.88;5015898;28;20089;-70
2022/09/03 03:59:46;;;;;;;21.08;10.40;;;;;;;15.18;87.16;99574.59;5015075;28;20115;-68
2022/09/03 04:02:13;;;;;;;19.05;9.95;;;;;;;15.22;87.08;99572.84;5026445;28;20049;-69
2022/09/03 04:04:38;;;;;;;18.65;10.05;;;;;;;15.25;87.11;99571.41;5025385;28;20930;-69
2022/09/03 04:07:04;;;;;;;19.00;10.85;;;;;;;15.24;87.18;99569.78;5029516;28;20143;-70
2022/09/03 04:09:29;;;;;;;13.35;7.45;;;;;;;15.21;87.11;99560.19;5033046;28;20037;-69
2022/09/03 04:11:57;;;;;;;16.13;8.48;;;;;;;15.16;87.15;99558.41;5037661;28;20132;-69
2022/09/03 04:14:23;;;;;;;9.75;6.15;;;;;;;15.12;87.32;99562.13;5015503;28;20030;-69
2022/09/03 04:16:49;;;;;;;16.10;9.85;;;;;;;15.12;87.24;99557.41;5034509;28;20029;-68
2022/09/03 04:19:16;;;;;;;12.07;7.43;;;;;;;15.10;87.24;99556.94;5033695;28;20099;-69
2022/09/03 04:21:42;;;;;;;13.40;8.68;;;;;;;15.07;87.37;99554.81;5026203;28;20038;-69
2022/09/03 04:24:07;;;;;;;10.25;7.50;;;;;;;15.06;87.39;99553.19;5015326;28;20030;-69
2022/09/03 04:26:33;;;;;;;8.82;5.80;;;;;;;15.09;87.33;99547.03;5031714;28;20029;-69
2022/09/03 04:29:01;;;;;;;10.27;5.70;;;;;;;15.10;87.24;99543.16;5028691;28;20037;-69
2022/09/03 04:31:26;;;;;;;11.00;6.22;;;;;;;15.14;87.01;99543.31;5036295;28;20060;-69
2022/09/03 04:33:53;;;;;;;8.48;5.05;;;;;;;15.13;86.75;99542.53;5033356;28;20499;-69
2022/09/03 04:36:20;;;;;;;9.50;5.93;;;;;;;15.11;86.89;99549.47;5031426;28;20091;-69
2022/09/03 04:38:48;;;;;;;9.45;4.82;;;;;;;15.15;86.87;99544.97;5026294;28;20473;-69
2022/09/03 04:41:17;;;;;;;9.98;6.05;;;;;;;15.24;86.51;99542.22;5033215;28;20484;-68
2022/09/03 04:43:43;;;;;;;10.10;5.85;;;;;;;15.28;86.52;99545.97;5032505;28;20030;-68
2022/09/03 04:46:10;;;;;;;10.43;5.22;;;;;;;15.26;86.21;99538.03;5031533;28;20044;-69
2022/09/03 04:48:36;;;;;;;8.60;5.63;;;;;;;15.22;85.89;99533.50;5033833;28;20380;-69
2022/09/03 04:51:08;;;;;;;8.50;5.45;;;;;;;15.20;85.82;99531.06;5041170;28;20138;-69
2022/09/03 04:53:35;;;;;;;7.70;5.10;;;;;;;15.22;85.67;99530.75;5045033;28;20021;-70
2022/09/03 04:56:01;;;;;;;10.30;6.45;;;;;;;15.26;84.96;99535.28;5030758;28;20033;-69
2022/09/03 04:58:27;;;;;;;11.55;6.97;;;;;;;15.24;84.76;99531.22;5028962;28;20088;-70
2022/09/03 05:00:52;;;;;;;6.88;5.60;;;;;;;15.23;84.69;99529.59;5028351;28;20026;-69
2022/09/03 05:03:19;;;;;;;7.60;6.15;;;;;;;15.23;84.25;99530.41;5032989;28;20029;-70
2022/09/03 05:05:53;;;;;;;4.68;3.92;;;;;;;15.22;84.35;99528.78;5021097;28;20045;-69
2022/09/03 05:08:18;;;;;;;6.15;3.83;;;;;;;15.28;83.90;99527.50;5023161;28;20022;-70
2022/09/03 05:10:43;;;;;;;5.13;3.83;;;;;;;15.32;83.76;99531.25;5027049;28;20503;-68
2022/09/03 05:13:09;;;;;;;4.38;2.95;;;;;;;15.37;83.65;99524.78;5031494;28;20040;-69
2022/09/03 05:15:35;;;;;;;4.43;3.50;;;;;;;15.41;83.37;99542.28;5032351;28;20033;-70
2022/09/03 05:18:02;;;;;;;5.40;4.03;;;;;;;15.52;82.75;99531.78;5031284;28;20483;-69
2022/09/03 05:20:29;;;;;;;5.55;4.57;;;;;;;15.50;82.29;99529.34;5038834;28;20033;-68
2022/09/03 05:22:56;;;;;;;6.45;3.80;;;;;;;15.48;82.37;99531.63;5034479;28;20021;-68
2022/09/03 05:25:22;;;;;;;6.28;4.25;;;;;;;15.49;82.01;99537.94;5016270;28;20033;-69
2022/09/03 05:27:47;;;;;;;5.40;4.05;;;;;;;15.47;81.71;99535.50;5033522;28;20025;-70
2022/09/03 05:30:13;;;;;;;4.70;3.33;;;;;;;15.45;81.34;99534.19;5022300;28;20029;-70
2022/09/03 05:32:39;;;;;;;5.38;3.83;;;;;;;15.59;80.57;99536.81;5030788;28;20067;-70
2022/09/03 05:35:06;;;;;;;7.22;4.60;;;;;;;15.62;80.24;99538.94;5032153;28;20028;-70
2022/09/03 05:37:32;;;;;;;6.38;4.78;;;;;;;15.50;80.07;99551.38;5032336;28;20044;-69
2022/09/03 05:39:57;;;;;;;6.57;5.13;;;;;;;15.40;80.24;99550.88;5033726;28;20032;-68
2022/09/03 05:42:23;;;;;;;8.07;5.07;;;;;;;15.30;80.15;99546.47;5026885;28;20492;-69
2022/09/03 05:44:48;;;;;;;6.93;4.45;;;;;;;15.27;80.57;99541.59;5025492;28;20029;-69
2022/09/03 05:47:15;;;;;;;4.82;3.75;;;;;;;15.30;80.64;99546.47;5017623;28;20053;-68
2022/09/03 05:49:40;;;;;;;6.22;4.20;;;;;;;15.31;80.24;99548.91;5027465;28;20021;-69
2022/09/03 05:52:07;;;;;;;5.50;4.47;;;;;;;15.37;80.27;99555.06;5038216;28;20045;-69
2022/09/03 05:54:32;;;;;;;6.32;5.13;;;;;;;15.43;80.24;99555.75;5013377;28;20040;-69
2022/09/03 05:56:58;;;;;;;6.57;5.20;;;;;;;15.49;80.09;99558.03;5023460;28;20033;-69
2022/09/03 05:59:23;;;;;;;8.48;5.60;;;;;;;15.57;79.85;99556.44;5026711;28;20029;-68
2022/09/03 06:01:49;;;;;;;6.28;4.80;;;;;;;15.65;79.92;99552.06;5033699;28;20056;-70
2022/09/03 06:04:15;;;;;;;5.68;4.30;;;;;;;15.71;79.83;99561.78;5032061;28;20522;-69
2022/09/03 06:06:43;;;;;;;6.68;4.43;;;;;;;15.74;80.02;99555.66;5030407;28;20029;-69
2022/09/03 06:09:12;;;;;;;8.40;4.97;;;;;;;15.77;80.01;99560.53;5033363;28;20029;-69
2022/09/03 06:11:39;;;;;;;9.38;5.55;;;;;;;15.79;79.95;99558.28;5036218;28;20041;-69
2022/09/03 06:14:08;;;;;;;8.52;5.50;;;;;;;15.86;79.72;99558.63;5028242;28;21168;-68
2022/09/03 06:16:36;;;;;;;8.30;4.15;;;;;;;15.93;80.04;99557.31;5017161;28;20025;-69
2022/09/03 06:19:02;;;;;;;7.78;4.35;;;;;;;16.01;79.67;99562.03;5032823;28;20481;-69
2022/09/03 06:21:28;;;;;;;9.55;4.85;;;;;;;16.09;79.55;99558.50;5009744;28;20044;-68
2022/09/03 06:23:56;;;;;;;13.90;5.57;;;;;;;16.14;79.30;99569.34;4999463;28;20041;-68
2022/09/03 06:26:22;;;;;;;12.30;6.38;;;;;;;16.21;79.34;99569.66;5006572;28;20060;-69
2022/09/03 06:28:48;;;;;;;16.73;7.72;;;;;;;16.27;78.88;99561.25;5015734;28;20040;-69
2022/09/03 06:31:18;;;;;;;12.63;6.90;;;;;;;16.33;78.94;99570.97;4994280;28;20037;-69
2022/09/03 06:33:46;;;;;;;15.70;7.95;;;;;;;16.39;78.96;99569.66;4994505;28;20475;-68
2022/09/03 06:36:14;;;;;;;13.55;7.07;;;;;;;16.47;78.87;99566.09;5011248;28;20029;-70
2022/09/03 06:38:40;;;;;;;14.75;6.80;;;;;;;16.60;78.69;99571.75;5011169;28;20061;-71
2022/09/03 06:41:23;;;;;;;14.98;7.50;;;;;;;16.74;78.11;99578.69;5004089;28;20499;-71
2022/09/03 06:43:53;;;;;;;17.65;10.45;;;;;;;16.80;77.88;99573.81;5032404;28;20029;-70
2022/09/03 06:46:21;;;;;;;17.25;9.90;;;;;;;16.82;78.10;99574.31;5018252;28;20800;-71
2022/09/03 06:48:53;;;;;;;14.82;9.02;;;;;;;16.87;77.85;99585.19;5030739;28;20113;-72
2022/09/03 06:51:25;;;;;;;18.55;10.70;;;;;;;16.82;77.87;99584.53;5012777;28;20056;-70
2022/09/03 06:53:53;;;;;;;13.90;7.80;;;;;;;16.87;77.96;99584.38;5022949;28;20041;-70
2022/09/03 06:56:27;;;;;;;16.58;9.55;;;;;;;16.95;77.98;99582.75;5031239;28;20459;-71
2022/09/03 06:58:57;;;;;;;21.15;10.88;;;;;;;17.05;77.71;99580.41;5032669;28;20464;-70
2022/09/03 07:01:29;;;;;;;22.05;12.43;;;;;;;17.01;77.73;99590.53;4996731;28;20026;-70
2022/09/03 07:03:57;;;;;;;26.23;14.48;;;;;;;17.06;78.07;99586.78;5032091;28;20029;-69
2022/09/03 07:06:26;;;;;;;20.25;12.23;;;;;;;17.05;77.98;99585.16;5032938;28;20033;-69
2022/09/03 07:08:51;;;;;;;16.55;10.13;;;;;;;17.24;77.72;99585.56;5020586;28;20022;-70
2022/09/03 07:11:21;;;;;;;17.48;11.82;;;;;;;17.36;77.50;99584.03;5031507;28;20427;-69
2022/09/03 07:13:49;;;;;;;13.00;9.20;;;;;;;17.47;77.07;99582.53;5012947;28;20083;-69
2022/09/03 07:16:20;;;;;;;13.35;8.48;;;;;;;17.67;76.65;99591.19;5021030;28;20017;-72
2022/09/03 07:18:46;;;;;;;14.52;7.70;;;;;;;17.86;76.08;99591.59;5014322;28;20104;-72
2022/09/03 07:21:15;;;;;;;12.18;7.22;;;;;;;18.04;75.54;99580.44;5021255;28;20026;-71
2022/09/03 07:23:41;;;;;;;8.70;5.57;;;;;;;18.25;74.91;99591.47;5022018;28;20022;-71
2022/09/03 07:26:11;;;;;;;13.65;7.10;;;;;;;18.52;74.02;99592.09;5010735;28;20030;-70
2022/09/03 07:28:38;;;;;;;7.80;5.10;;;;;;;18.81;73.41;99596.69;5007834;28;20021;-70
2022/09/03 07:31:13;;;;;;;8.80;5.90;;;;;;;19.08;72.48;99594.47;5030709;28;20033;-70
2022/09/03 07:33:39;;;;;;;6.95;4.97;;;;;;;19.39;71.96;99601.44;4993327;28;20033;-71
2022/09/03 07:36:13;;;;;;;7.82;5.80;;;;;;;19.96;70.48;99600.53;5016861;28;20133;-71
2022/09/03 07:38:39;;;;;;;6.47;5.47;;;;;;;20.41;68.96;99606.97;5004693;28;20680;-71
2022/09/03 07:41:08;;;;;;;8.05;5.63;;;;;;;20.60;68.54;99606.31;5029919;28;20112;-71
2022/09/03 07:43:56;;;;;;;7.82;5.90;;;;;;;20.59;67.93;99601.97;5025480;28;20093;-71
2022/09/03 07:46:24;;;;;;;9.63;6.18;;;;;;;20.68;68.25;99607.38;5000877;28;20087;-72
2022/09/03 07:48:51;;;;;;;8.18;5.90;;;;;;;21.08;67.31;99609.25;5033362;28;20115;-70
2022/09/03 07:51:18;;;;;;;7.95;5.70;;;;;;;21.40;66.65;99604.50;5040257;28;20479;-70
2022/09/03 07:53:45;;;;;;;7.07;5.10;;;;;;;21.76;65.67;99599.84;5008801;28;20083;-71
2022/09/03 07:56:11;;;;;;;12.18;8.18;;;;;;;22.10;64.07;99613.31;5018482;28;20087;-71
2022/09/03 07:58:38;;;;;;;15.57;8.80;;;;;;;22.18;63.52;99608.69;5030266;28;20694;-70
2022/09/03 08:01:07;;;;;;;7.38;5.90;;;;;;;22.44;62.83;99611.69;5016836;28;20476;-71
2022/09/03 08:03:34;;;;;;;7.30;5.18;;;;;;;22.77;62.31;99607.56;5034568;28;20029;-70
2022/09/03 08:06:05;;;;;;;4.60;3.70;;;;;;;23.20;61.38;99617.94;5003528;28;20605;-71
2022/09/03 08:08:37;;;;;;;5.78;3.47;;;;;;;23.66;60.26;99609.53;5014666;28;20432;-71
2022/09/03 08:11:12;;;;;;;5.03;3.42;;;;;;;24.07;59.42;99617.34;5024235;28;20141;-70
2022/09/03 08:13:43;;;;;;;3.35;2.80;;;;;;;24.50;58.15;99627.09;5038113;28;20094;-71
2022/09/03 08:16:10;;;;;;;3.92;3.17;;;;;;;24.89;56.85;99615.59;5032839;28;20014;-70
2022/09/03 08:18:37;;;;;;;12.82;6.90;;;;;;;25.03;55.36;99625.34;5000398;28;20041;-70
2022/09/03 08:21:12;;;;;;;8.30;5.78;;;;;;;24.88;55.76;99625.19;5037150;28;20071;-70
2022/09/03 08:23:43;;;;;;;5.80;4.60;;;;;;;24.84;55.75;99624.34;5032984;28;20108;-70
2022/09/03 08:26:10;;;;;;;3.80;3.42;;;;;;;24.90;55.80;99622.78;5033303;28;20036;-71
2022/09/03 08:28:36;;;;;;;5.35;4.70;;;;;;;24.61;56.07;99626.47;5038130;28;20034;-70
2022/09/03 08:31:05;;;;;;;11.02;5.95;;;;;;;24.10;56.32;99620.19;5032181;28;20025;-71
2022/09/03 08:33:36;;;;;;;11.90;8.30;;;;;;;23.33;57.73;99617.38;5022926;28;20113;-71
2022/09/03 08:36:08;;;;;;;6.53;5.43;;;;;;;22.75;59.65;99629.44;5024265;28;20018;-70
2022/09/03 08:38:35;;;;;;;7.45;5.70;;;;;;;22.30;61.08;99625.28;5038946;28;20444;-71
2022/09/03 08:41:29;;;;;;;6.65;5.75;;;;;;;22.06;61.62;99624.34;5034078;28;20031;-71
2022/09/03 08:44:07;;;;;;;10.88;8.70;;;;;;;21.67;62.89;99635.41;5036271;28;20475;-71
2022/09/03 08:47:21;;;;;;;12.63;9.02;;;;;;;21.41;63.92;99633.94;5022419;28;20033;-70
2022/09/03 08:49:58;;;;;;;11.27;8.13;;;;;;;21.60;63.89;99635.22;5033301;28;20044;-70
2022/09/03 08:52:37;;;;;;;9.23;7.70;;;;;;;22.05;62.94;99633.91;5034622;28;20051;-71
2022/09/03 08:55:11;;;;;;;10.07;6.95;;;;;;;22.40;62.17;99633.09;5034276;28;20021;-71
2022/09/03 08:57:45;;;;;;;10.52;7.97;;;;;;;22.39;61.74;99637.03;5036979;28;20047;-71
2022/09/03 09:00:11;;;;;;;11.57;8.90;;;;;;;22.36;61.66;99635.00;5025497;28;20028;-71
2022/09/03 09:03:18;;;;;;;7.90;6.72;;;;;;;22.46;61.53;99639.97;5016558;28;20038;-71
2022/09/03 09:06:08;;;;;;;9.45;7.63;;;;;;;22.63;61.31;99646.28;5008315;28;20033;-70
2022/09/03 09:08:52;;;;;;;9.18;7.18;;;;;;;22.78;60.76;99648.19;5039453;28;20029;-69
2022/09/03 09:11:17;;;;;;;8.25;6.07;;;;;;;22.76;60.56;99644.94;5034483;28;20441;-70
2022/09/03 09:13:56;;;;;;;12.43;8.27;;;;;;;22.73;60.74;99642.09;5018345;28;20074;-70
2022/09/03 09:16:52;;;;;;;12.57;8.52;;;;;;;22.67;59.60;99652.75;5029938;28;20025;-71
2022/09/03 09:19:37;;;;;;;6.22;5.30;;;;;;;22.56;59.70;99640.56;5010792;28;20032;-71
2022/09/03 09:22:48;;;;;;;11.15;7.50;;;;;;;22.94;58.33;99647.28;5022888;28;20028;-70
2022/09/03 09:25:20;;;;;;;11.30;8.38;;;;;;;22.53;59.19;99655.22;4993970;28;20076;-71
2022/09/03 09:28:07;;;;;;;10.02;8.18;;;;;;;22.38;60.17;99652.13;5032130;28;20124;-71
2022/09/03 09:30:32;;;;;;;13.45;7.75;;;;;;;22.22;59.48;99660.50;5027867;28;20030;-71
2022/09/03 09:32:59;;;;;;;8.30;6.07;;;;;;;22.14;60.40;99658.75;5007902;28;20034;-70
2022/09/03 09:35:25;;;;;;;8.88;7.03;;;;;;;22.28;60.04;99659.06;4994914;28;20025;-70
2022/09/03 09:37:52;;;;;;;7.20;5.97;;;;;;;22.79;58.77;99671.28;5010318;28;20036;-70
2022/09/03 09:40:32;;;;;;;9.00;6.85;;;;;;;22.62;58.60;99667.78;5018437;28;20025;-70
2022/09/03 09:43:14;;;;;;;8.18;6.55;;;;;;;22.52;59.30;99667.56;5019013;28;20472;-71
2022/09/03 09:45:45;;;;;;;9.07;7.30;;;;;;;22.80;58.24;99670.13;5034647;28;20068;-71
2022/09/03 09:48:36;;;;;;;6.03;5.43;;;;;;;22.95;57.85;99680.38;5014444;28;20025;-70
2022/09/03 09:51:12;;;;;;;8.35;7.18;;;;;;;23.61;56.24;99674.84;5026907;28;20032;-70
2022/09/03 09:53:39;;;;;;;12.90;8.57;;;;;;;25.00;52.27;99682.00;5024220;28;20030;-69
2022/09/03 09:56:06;;;;;;;5.85;5.25;;;;;;;26.30;49.22;99678.41;5033210;28;20026;-72
2022/09/03 09:58:33;;;;;;;8.43;6.50;;;;;;;28.06;45.30;99678.06;5019446;28;20480;-71
2022/09/03 10:01:04;;;;;;;8.90;6.85;;;;;;;28.12;43.94;99684.06;5031644;28;20021;-70
2022/09/03 10:03:36;;;;;;;11.40;6.15;;;;;;;27.57;44.39;99674.84;5011317;28;20069;-70
2022/09/03 10:09:03;;;;;;;11.95;7.20;;;;;;;27.03;44.93;99665.50;5036246;28;20056;-69
2022/09/03 10:11:29;;;;;;;8.57;5.78;;;;;;;27.59;44.85;99669.63;5012605;28;20054;-70
2022/09/03 10:13:56;;;;;;;9.65;7.20;;;;;;;28.71;41.42;99673.09;5024867;28;20034;-71
2022/09/03 10:16:29;;;;;;;12.23;6.90;;;;;;;29.50;39.33;99668.25;5032032;28;20532;-71
2022/09/03 10:19:15;;;;;;;6.20;4.53;;;;;;;29.27;39.84;99669.59;5034987;28;20037;-70
2022/09/03 10:21:46;;;;;;;11.57;6.00;;;;;;;29.86;39.01;99665.13;5031346;28;20032;-71
2022/09/03 10:24:38;;;;;;;9.35;4.57;;;;;;;29.42;40.02;99665.47;5036564;28;20017;-71
2022/09/03 10:27:08;;;;;;;7.20;4.65;;;;;;;28.64;41.28;99661.84;5025510;28;20029;-71
2022/09/03 10:29:34;;;;;;;4.68;3.30;;;;;;;27.90;42.99;99657.97;5014650;28;20033;-70
2022/09/03 10:32:03;;;;;;;11.20;6.50;;;;;;;27.49;43.32;99657.19;5026496;28;20033;-71
2022/09/03 10:34:50;;;;;;;4.32;3.90;;;;;;;27.72;43.03;99658.00;5032680;28;20036;-72
2022/09/03 10:37:33;;;;;;;9.00;5.85;;;;;;;28.63;41.20;99653.84;5025276;28;20021;-70
2022/09/03 10:40:34;;;;;;;5.60;4.65;;;;;;;30.42;37.69;99654.50;5025940;28;20044;-71
2022/09/03 10:43:15;;;;;;;3.17;2.72;;;;;;;32.18;35.92;99659.59;5032958;28;20553;-71
2022/09/03 10:45:56;;;;;;;10.40;4.95;;;;;;;33.67;31.33;99674.19;5035877;28;20079;-71
2022/09/03 10:48:47;;;;;;;6.03;3.72;;;;;;;33.56;31.19;99663.91;5013919;28;20037;-71
2022/09/03 10:52:05;;;;;;;5.30;3.95;;;;;;;34.08;30.83;99664.22;5030729;28;20029;-71
2022/09/03 10:54:51;;;;;;;6.05;5.05;;;;;;;33.82;30.07;99660.47;5026879;28;20073;-71
2022/09/03 10:57:26;;;;;;;4.07;3.03;;;;;;;32.09;32.89;99664.97;5018755;28;20056;-70
2022/09/03 11:00:10;;;;;;;6.93;3.47;;;;;;;30.92;34.96;99660.75;5028715;28;20113;-71
2022/09/03 11:02:40;;;;;;;;;;;;;;;30.22;36.24;99664.78;5030844;28;20029;-71
2022/09/03 11:05:15;;;;;;;7.97;3.42;;;;;;;30.53;36.23;99665.66;5020153;28;19920;-70
2022/09/03 11:07:48;;;;;;;7.00;5.05;;;;;;;30.85;35.48;99669.31;5034801;28;20035;-70
2022/09/03 11:10:27;;;;;;;6.65;4.15;;;;;;;31.19;35.13;99659.97;5024538;28;20452;-71
2022/09/03 11:13:16;;;;;;;10.05;5.60;;;;;;;31.39;34.73;99654.44;5034168;28;20049;-72
2022/09/03 11:15:52;;;;;;;10.52;6.10;;;;;;;30.44;35.66;99657.69;5028471;28;20438;-71
2022/09/03 11:18:33;;;;;;;10.40;5.57;;;;;;;29.27;37.90;99651.91;5034765;28;20040;-71
2022/09/03 11:21:03;;;;;;;9.13;5.10;;;;;;;27.93;40.33;99655.16;5032174;28;20052;-72
2022/09/03 11:23:35;;;;;;;6.75;4.90;;;;;;;26.82;42.56;99655.81;5036642;28;20121;-70
2022/09/03 11:26:11;;;;;;;5.20;4.15;;;;;;;26.36;43.93;99664.81;5033802;28;20025;-71
2022/09/03 11:28:55;;;;;;;9.85;5.90;;;;;;;25.87;45.49;99656.47;5029402;28;20039;-70
2022/09/03 11:31:49;;;;;;;10.52;5.18;;;;;;;26.14;44.83;99664.69;5030786;28;20029;-70
2022/09/03 11:34:25;;;;;;;12.52;5.15;;;;;;;26.06;44.23;99658.22;5032249;28;21314;-70
2022/09/03 11:37:03;;;;;;;7.65;4.85;;;;;;;26.21;44.35;99659.13;5026812;28;20037;-69
2022/09/03 11:39:38;;;;;;;5.22;4.70;;;;;;;27.61;41.75;99656.00;5020238;28;20049;-70
2022/09/03 11:42:27;;;;;;;9.40;5.40;;;;;;;28.45;40.13;99653.88;5035303;28;20053;-71
2022/09/03 11:44:59;;;;;;;7.25;4.10;;;;;;;28.70;38.64;99651.78;5037475;28;20035;-70
2022/09/03 11:47:43;;;;;;;4.32;3.92;;;;;;;28.23;39.68;99653.94;5036686;28;20025;-71
2022/09/03 11:50:23;;;;;;;5.88;4.47;;;;;;;27.64;40.68;99665.59;5034209;28;20036;-72
2022/09/03 11:52:52;;;;;;;9.32;5.18;;;;;;;27.00;42.17;99645.47;5037155;28;20120;-71
2022/09/03 11:55:25;;;;;;;12.60;6.05;;;;;;;26.43;43.39;99656.41;5044005;28;20029;-72
2022/09/03 11:57:51;;;;;;;10.57;4.28;;;;;;;25.85;44.36;99658.84;5017851;28;20048;-72